Tiempo atmosférico en la estación meteorológica de Saelices El Chico, Salamanca (680 m.)



Fecha
DESCASC
Temp. máxima en grados centígrados (hora)
DESCASC
Temp. mínima en grados centígrados (hora)
DESCASC
Temp. media en grados centígrados
DESCASC
Racha de viento máxima en m/sg (hora)
DESCASC
Velocidad máxima media en intervalos de 10 minutos(hora)
DESCASC
Precipitaciones diarias en mm
DESCASC
Precipitaciones de 00:00 a 06:00 en mm
DESCASC
Precipitaciones de 06:00 a 12:00 en mm
DESCASC
Precipitaciones de 12:00 a 18:00 en mm
DESCASC
Precipitaciones de 18:00 a 24:00 en mm
DESCASC
13-06-2019 24.4 (17:10) 4.6 (07:10) 14.5 10.28 (21:10) 5.83 (19:10) 0 0 0 0 0
12-06-2019 24 (18:00) 8.2 (04:20) 16.1 11.11 (09:00) 7.22 (09:00) 0 0 0 0 0
11-06-2019 21.8 (17:10) 8 (07:00) 14.9 13.33 (12:50) 6.94 (12:10) 0 0 0 0 0
10-06-2019 23.9 (18:00) 6.1 (07:10) 15 10.83 (16:50) 5.83 (20:30) 0 0 0 0 0
09-06-2019 23 (16:40) 5.7 (00:00) 14.3 12.78 (18:10) 6.11 (19:50) 0 0 0 0 0
08-06-2019 25.5 (17:00) 5.4 (00:00) 15.5 11.11 (19:50) 5.83 (21:20) 0 0 0 0 0
07-06-2019 18.6 (18:00) 7 (00:00) 12.8 10 (05:20) 4.72 (05:20) 0 0 0 0 0
06-06-2019 19.8 (15:50) 3 (00:00) 11.4 19.17 (16:00) 10.28 (15:40) 4.4 0 0 0 4.4
05-06-2019 18.8 (15:10) 6.9 (00:00) 12.8 12.22 (13:50) 6.67 (16:00) 0 0 0 0 0
04-06-2019 23.2 (14:20) 10.6 (00:00) 16.9 14.72 (16:30) 7.5 (16:00) 0 0 0 0 0
03-06-2019 31.2 (16:10) 9.9 (00:00) 20.6 12.78 (17:10) 7.5 (17:00) 0 0 0 0 0
02-06-2019 33.1 (15:50) 12 (00:00) 22.5 13.06 (15:50) 6.39 (18:30) 0 0 0 0 0
01-06-2019 34.4 (15:50) 11.9 (00:00) 23.2 8.89 (18:50) 5 (16:10) 0 0 0 0 0
31-05-2019 32.4 (16:10) 9.4 (00:00) 20.9 8.61 (17:30) 4.72 (17:30) 0 0 0 0 0
30-05-2019 30.8 (17:50) 10.9 (00:00) 20.8 10.83 (16:00) 6.67 (10:40) 0 0 0 0 0
29-05-2019 25.9 (17:30) 10.2 (00:00) 18 16.11 (02:10) 11.11 (02:20) 0 0 0 0 0
28-05-2019 25.8 (17:40) 11.5 (00:00) 18.6 13.33 (17:30) 8.61 (23:59) 0 0 0 0 0
27-05-2019 27.6 (17:00) 11 (00:00) 19.3 12.5 (16:10) 5.28 (20:20) 0 0 0 0 0
26-05-2019 27.7 (17:20) 10.9 (00:00) 19.3 11.67 (03:30) 8.06 (03:30) 0 0 0 0 0
25-05-2019 24.1 (18:10) 10.2 (00:00) 17.2 13.89 (00:20) 9.17 (11:40) 0 0 0 0 0
24-05-2019 23.5 (16:10) 8.8 (00:00) 16.2 13.61 (15:20) 8.06 (10:50) 0 0 0 0 0
23-05-2019 26 (16:40) 9.7 (00:00) 17.8 12.22 (19:30) 6.11 (19:30) 0 0 0 0 0
22-05-2019 28.3 (18:00) 7.2 (00:00) 17.7 9.17 (21:20) 5 (21:40) 0 0 0 0 0
21-05-2019 24.9 (17:30) 4.5 (07:20) 14.7 7.78 (17:50) 3.89 (20:10) 0 0 0 0 0
20-05-2019 21 (15:50) 3.8 (05:50) 12.4 13.33 (19:20) 6.11 (19:00) 0 0 0 0 0
19-05-2019 19.6 (17:40) 1.6 (00:00) 10.6 11.11 (19:40) 5 (17:00) 0 0 0 0 0
18-05-2019 17.7 (16:10) 3.4 (00:00) 10.6 11.39 (19:20) 6.11 (19:40) 0 0 0 0 0
17-05-2019 17.5 (16:20) 6.2 (00:00) 11.8 13.61 (00:10) 6.94 (00:30) 0 0 0 0 0

Gráficas

Temp. máximas Temp. mínimas Temp. medias Precipitaciones Rachas de viento máximas Velocidades máximas media en intervalos de 10 minutos

Datos horarios

Fecha y hora oficial Temperatura (ºC) Velocidad del viento (km/h) Dirección del viento Racha (km/h) Dirección de racha Precipitación (mm) Presión (hPa) Tendencia (hPa) Humedad (%)
2019-06-15 23:00:00 16.7 11 Noroeste 18 Noroeste 0 941 0.9 41
2019-06-15 22:00:00 19.8 6 Noroeste 17 Noroeste 0 940.4 0.2 29
2019-06-15 21:00:00 22.5 8 Noroeste 19 Norte 0 940.2 -0.3 23
2019-06-15 20:00:00 23.2 9 Noroeste 27 Norte 0 940.1 -0.8 22
2019-06-15 19:00:00 23.6 10 Oeste 26 Noroeste 0 940.2 -1.1 21
2019-06-15 18:00:00 23.5 12 Noroeste 26 Noroeste 0 940.5 -1.2 23
2019-06-15 17:00:00 23.9 12 Oeste 25 Noroeste 0 940.9 -1.1 23
2019-06-15 16:00:00 22.4 7 Nordeste 21 Norte 0 941.3 -1 26
2019-06-15 15:00:00 21.2 6 Norte 27 Noroeste 0 941.7 -0.7 28
2019-06-15 14:00:00 19.8 6 Sudoeste 22 Oeste 0 942 -0.3 31
2019-06-15 13:00:00 18.2 7 Oeste 21 Oeste 0 942.3 -0.1 36
2019-06-15 12:00:00 16.3 7 Oeste 21 Oeste 0 942.4 0.4 45
2019-06-15 11:00:00 15.3 4 Sudeste 14 Este 0 942.3 0.5 53
2019-06-15 10:00:00 13.4 4 Este 10 Nordeste 0 942.4 1.1 61
2019-06-15 09:00:00 10.6 5 Este 10 Sudeste 0 942 0.9 73
2019-06-15 08:00:00 6.6 5 Este 9 Este 0 941.8 0.8 83
2019-06-15 07:00:00 5.4 3 Este 11 Este 0 941.3 0.2 87
2019-06-15 06:00:00 6.1 3 Este 8 Oeste 0 941.1 0.3 84
2019-06-15 05:00:00 7.2 0 Calma 13 Noroeste 0 941 0.3 83
2019-06-15 04:00:00 7.8 4 Sur 11 Oeste 0 941.1 0.6 81
2019-06-15 03:00:00 8.6 3 Norte 9 Oeste 0 940.8 0.8 77
2019-06-15 02:00:00 9.3 5 Noroeste 10 Noroeste 0 940.7 0.9 73
2019-06-15 01:00:00 10.5 7 Oeste 25 Oeste 0 940.5 1.5 69
2019-06-15 00:00:00 11.7 14 Oeste 27 Oeste 0 940 1.9 61
2019-06-14 23:00:00 13.3 12 Oeste 35 Oeste 0 939.8 2.4 57
2019-06-14 22:00:00 13.7 19 Oeste 38 Oeste 0 939 2.5 55
2019-06-14 21:00:00 14.6 20 Oeste 42 Oeste 0 938.1 1.8 50
2019-06-14 20:00:00 16.1 22 Oeste 42 Oeste 0 937.4 1.4 39
2019-06-14 19:00:00 18 22 Oeste 44 Oeste 0 936.5 0.5 35
2019-06-14 18:00:00 19.1 23 Oeste 41 Oeste 0 936.3 0.3 32
2019-06-14 17:00:00 19.1 21 Oeste 42 Oeste 0 936 -0.1 30
2019-06-14 16:00:00 19.6 15 Oeste 39 Oeste 0 936 0.2 30
2019-06-14 15:00:00 19.3 18 Oeste 41 Oeste 0 936 0.4 31
2019-06-14 14:00:00 17.7 15 Oeste 29 Noroeste 0 936.1 1 35
2019-06-14 13:00:00 16.7 14 Oeste 27 Sudoeste 0 935.8 1 41
2019-06-14 12:00:00 15.8 9 Noroeste 24 Oeste 0 935.6 1 49
2019-06-14 11:00:00 14.6 8 Oeste 25 Noroeste 0 935.1 0.8 53
2019-06-14 10:00:00 12.9 10 Noroeste 19 Noroeste 0 934.8 0.9 60
2019-06-14 09:00:00 9.5 4 Noroeste 9 Noroeste 0 934.6 0.9 71
2019-06-14 08:00:00 6.7 0 Calma 6 Noroeste 0 934.3 0.3 78
2019-06-14 07:00:00 5.1 0 Calma 6 Sudeste 0 933.9 0 82
2019-06-14 06:00:00 5.7 3 Este 9 Norte 0 933.7 -0.3 80
2019-06-14 05:00:00 6.3 4 Sudeste 6 Sudoeste 0 934 -0.1 76
2019-06-14 04:00:00 7.5 0 Calma 5 Noroeste 0 933.9 -0.2 71
2019-06-14 03:00:00 9.5 3 Noroeste 6 Oeste 0 934 0 67
2019-06-14 02:00:00 10.3 3 Oeste 10 Noroeste 0 934.1 0.4 64
2019-06-14 01:00:00 11.5 8 Noroeste 14 Noroeste 0 934.1 1.3 59
2019-06-14 00:00:00 12.4 8 Noroeste 17 Noroeste 0 934 2 54
2019-06-13 23:00:00 14.4 10 Noroeste 28 Noroeste 0 933.7 2.3 46
2019-06-13 22:00:00 16.5 14 Noroeste 37 Noroeste 0 932.8 1.7 39
2019-06-13 21:00:00 19.4 18 Noroeste 36 Noroeste 0 932 1 31
2019-06-13 20:00:00 21.7 18 Oeste 37 Noroeste 0 931.4 0.3 26
2019-06-13 19:00:00 22.6 18 Noroeste 36 Oeste 0 931.1 -0.3 26
2019-06-13 18:00:00 23.5 16 Noroeste 37 Norte 0 931 -0.8 26
2019-06-13 17:00:00 23.9 17 Oeste 32 Oeste 0 931.1 -1.2 25
2019-06-13 16:00:00 23.6 12 Oeste 32 Oeste 0 931.4 -1.2 23
2019-06-13 15:00:00 22.2 6 Noroeste 35 Oeste 0 931.8 -1.3 25
2019-06-13 14:00:00 20.5 12 Noroeste 27 Oeste 0 932.3 -0.9 29
2019-06-13 13:00:00 19.3 9 Sudoeste 18 Oeste 0 932.6 -0.7 28
2019-06-13 12:00:00 17.4 7 Este 17 Norte 0 933.1 0 40
2019-06-13 11:00:00 14.2 8 Noroeste 15 Noroeste 0 933.2 0.2 52
2019-06-13 10:00:00 12.2 7 Oeste 15 Noroeste 0 933.3 0.5 63
2019-06-13 09:00:00 10.5 3 Sudeste 7 Sudeste 0 933.1 0.4 66
2019-06-13 08:00:00 6.2 5 Este 8 Este 0 933 0.2 80
2019-06-13 07:00:00 4.7 5 Este 7 Este 0 932.8 0 84
2019-06-13 06:00:00 5.4 4 Este 6 Sudeste 0 932.7 -0.3 82
2019-06-13 05:00:00 7.5 2 Oeste 8 Noroeste 0 932.8 -0.3 81
2019-06-13 04:00:00 8.2 6 Noroeste 16 Noroeste 0 932.8 -0.4 78
2019-06-13 03:00:00 8.9 4 Noroeste 10 Noroeste 0 933 -0.3 73
2019-06-13 02:00:00 10.2 5 Noroeste 12 Noroeste 0 933.1 0.1 67
2019-06-13 01:00:00 11.5 6 Noroeste 18 Noroeste 0 933.2 0.9 61
2019-06-13 00:00:00 13.6 12 Noroeste 25 Noroeste 0 933.3 1.4 50
2019-06-12 23:00:00 15.5 12 Noroeste 22 Noroeste 0 933 1.1 34
2019-06-12 22:00:00 17.8 13 Noroeste 28 Noroeste 0 932.3 0.4 24
2019-06-12 21:00:00 21.2 13 Noroeste 27 Oeste 0 931.9 -0.5 19
2019-06-12 20:00:00 22.4 12 Noroeste 29 Norte 0 931.9 -1.1 15
2019-06-12 19:00:00 22.9 13 Noroeste 36 Noroeste 0 931.9 -1.6 15
2019-06-12 18:00:00 23.2 12 Noroeste 28 Noroeste 0 932.4 -1.7 15
2019-06-12 17:00:00 23.3 5 Noroeste 29 Oeste 0 933 -2 14
2019-06-12 16:00:00 22.6 16 Oeste 30 Oeste 0 933.5 -2.1 14
2019-06-12 15:00:00 22.1 8 Sudoeste 28 Oeste 0 934.1 -1.9 17
2019-06-12 14:00:00 20.4 10 Oeste 23 Este 0 935 -1.4 22
2019-06-12 13:00:00 18.5 7 Nordeste 19 Norte 0 935.6 -1 25
2019-06-12 12:00:00 17.6 8 Nordeste 31 Este 0 936 -0.3 30
2019-06-12 11:00:00 16.1 8 Este 25 Nordeste 0 936.4 0.1 32
2019-06-12 10:00:00 13.5 19 Nordeste 36 Nordeste 0 936.6 0.2 40
2019-06-12 09:00:00 11.6 26 Nordeste 40 Nordeste 0 936.3 0.1 46
2019-06-12 08:00:00 10 5 Este 17 Este 0 936.3 -0.2 51
2019-06-12 07:00:00 8.9 3 Este 22 Nordeste 0 936.4 -0.6 52
2019-06-12 06:00:00 9.4 10 Nordeste 22 Nordeste 0 936.2 -1.1 50
2019-06-12 05:00:00 9.3 7 Nordeste 19 Nordeste 0 936.5 -0.8 52
2019-06-12 04:00:00 8.5 10 Norte 16 Norte 0 937 -0.3 57
2019-06-12 03:00:00 9.4 10 Norte 18 Norte 0 937.3 0.1 54
2019-06-12 02:00:00 10.3 11 Norte 25 Norte 0 937.3 0.4 51
2019-06-12 01:00:00 11.6 14 Norte 25 Norte 0 937.3 1 45
2019-06-12 00:00:00 13.4 15 Norte 33 Norte 0 937.2 1.2 39
2019-06-11 23:00:00 15 13 Noroeste 25 Norte 0 936.9 0.8 35
2019-06-11 22:00:00 17.2 14 Noroeste 27 Norte 0 936.3 0.2 28
2019-06-11 21:00:00 19.7 14 Norte 37 Norte 0 936 -0.1 17
2019-06-11 20:00:00 20.9 15 Norte 36 Norte 0 936.1 0 15
2019-06-11 19:00:00 21.1 18 Norte 41 Nordeste 0 936.1 -0.4 15
2019-06-11 18:00:00 21.4 20 Norte 42 Norte 0 936.1 -0.5 15
2019-06-11 17:00:00 21.6 21 Norte 42 Norte 0 936.1 -0.7 18
2019-06-11 16:00:00 20.1 22 Nordeste 48 Nordeste 0 936.5 -0.3 20
2019-06-11 15:00:00 19.5 20 Norte 47 Norte 0 936.6 0 22
2019-06-11 14:00:00 18.8 23 Norte 43 Nordeste 0 936.8 0.3 24
2019-06-11 13:00:00 18 23 Norte 48 Norte 0 936.8 0.2 29
2019-06-11 12:00:00 16.4 22 Norte 40 Norte 0 936.6 0 35
2019-06-11 11:00:00 15.4 22 Norte 44 Norte 0 936.5 0.1 44
2019-06-11 10:00:00 14 22 Norte 39 Norte 0 936.6 0.1 49
2019-06-11 09:00:00 12.1 19 Norte 35 Norte 0 936.6 0.1 63
2019-06-11 08:00:00 9.1 8 Norte 14 Norte 0 936.4 -0.3 76
2019-06-11 07:00:00 8 4 Oeste 12 Noroeste 0 936.5 -0.5 79
2019-06-11 06:00:00 8.6 7 Oeste 15 Noroeste 0 936.5 -0.7 75
2019-06-11 05:00:00 9.3 8 Noroeste 20 Noroeste 0 936.7 -0.9 72
2019-06-11 04:00:00 9.9 12 Noroeste 22 Noroeste 0 937 -0.8 69
2019-06-11 03:00:00 10.8 13 Noroeste 22 Noroeste 0 937.2 -0.8 66
2019-06-11 02:00:00 11.8 13 Oeste 35 Oeste 0 937.6 -0.2 64
2019-06-11 01:00:00 12.9 10 Noroeste 28 Noroeste 0 937.8 0.7 59
2019-06-11 00:00:00 14.4 13 Oeste 26 Noroeste 0 938 1.2 54
2019-06-10 23:00:00 16 12 Noroeste 35 Noroeste 0 937.8 1.3 46
2019-06-10 22:00:00 18 16 Noroeste 39 Noroeste 0 937.1 0.3 35
2019-06-10 21:00:00 20.9 18 Noroeste 39 Noroeste 0 936.8 -0.6 24
2019-06-10 20:00:00 22.7 18 Noroeste 38 Noroeste 0 936.5 -1.3 18
2019-06-10 19:00:00 23.3 13 Noroeste 36 Oeste 0 936.8 -1.6 18
2019-06-10 18:00:00 23.9 12 Noroeste 33 Norte 0 937.4 -1.5 17
2019-06-10 17:00:00 22.7 14 Noroeste 39 Norte 0 937.8 -1.8 18
2019-06-10 16:00:00 22.5 12 Noroeste 36 Noroeste 0 938.4 -1.9 16
2019-06-10 15:00:00 22.2 8 Noroeste 28 Noroeste 0 938.9 -1.7 19
2019-06-10 14:00:00 20.5 8 Norte 31 Norte 0 939.6 -1.2 23
2019-06-10 13:00:00 19.3 9 Noroeste 23 Norte 0 940.3 -0.7 29
2019-06-10 12:00:00 17.8 8 Noroeste 21 Oeste 0 940.6 -0.6 41
2019-06-10 11:00:00 16 10 Noroeste 21 Noroeste 0 940.8 0 50
2019-06-10 10:00:00 14 9 Noroeste 23 Norte 0 941 0.4 58
2019-06-10 09:00:00 11.3 4 Noroeste 10 Oeste 0 941.2 0.9 69
2019-06-10 08:00:00 7.8 0 Calma 8 Sudeste 0 940.8 0.2 80
2019-06-10 07:00:00 6.2 3 Este 5 Sudeste 0 940.6 -0.4 83
2019-06-10 06:00:00 6.7 3 Norte 9 Oeste 0 940.3 -1.2 82
2019-06-10 05:00:00 7.9 8 Oeste 9 Oeste 0 940.6 -1.1 79
2019-06-10 04:00:00 8.8 4 Sudeste 14 Este 0 941 -0.6 73
2019-06-10 03:00:00 10.2 4 Norte 19 Noroeste 0 941.5 0.2 69
2019-06-10 02:00:00 10.7 11 Noroeste 17 Noroeste 0 941.7 0.9 66
2019-06-10 01:00:00 11.8 9 Noroeste 17 Noroeste 0 941.6 1.6 62
2019-06-10 00:00:00 13.1 10 Noroeste 26 Noroeste 0 941.3 1.7 57
2019-06-09 23:00:00 14.5 12 Noroeste 27 Noroeste 0 940.8 1.6 53
2019-06-09 22:00:00 16.4 17 Noroeste 36 Noroeste 0 940 1 45
2019-06-09 21:00:00 18.6 21 Noroeste 41 Noroeste 0 939.6 0.9 36
2019-06-09 20:00:00 20.2 18 Noroeste 41 Noroeste 0 939.2 0.3 33
2019-06-09 19:00:00 19.8 18 Noroeste 46 Oeste 0 939 -0.1 32
2019-06-09 18:00:00 21.9 14 Oeste 39 Oeste 0 938.7 -0.7 27
2019-06-09 17:00:00 20.7 14 Noroeste 36 Oeste 0 938.9 -1 29
2019-06-09 16:00:00 21.7 15 Oeste 32 Oeste 0 939.1 -1 28
2019-06-09 15:00:00 21 15 Oeste 33 Oeste 0 939.4 -0.8 32
2019-06-09 14:00:00 20.8 11 Noroeste 28 Noroeste 0 939.9 -0.6 27
2019-06-09 13:00:00 19.5 11 Noroeste 26 Oeste 0 940.1 -0.6 26
2019-06-09 12:00:00 17.5 6 Oeste 22 Sudoeste 0 940.2 -0.6 37
2019-06-09 11:00:00 15.2 7 Nordeste 13 Nordeste 0 940.5 0.2 48
2019-06-09 10:00:00 12.7 4 Noroeste 11 Sudeste 0 940.7 0.9 60
2019-06-09 09:00:00 10.3 6 Este 9 Este 0 940.8 1.2 73
2019-06-09 08:00:00 7.1 5 Sudeste 8 Sudeste 0 940.3 0.7 85
2019-06-09 07:00:00 6 5 Sudeste 6 Sudeste 0 939.8 -0.1 84
2019-06-09 06:00:00 7.3 0 Calma 10 Oeste 0 939.6 -0.7 81
2019-06-09 05:00:00 8 8 Noroeste 9 Noroeste 0 939.6 -0.9 80
2019-06-09 04:00:00 8.9 2 Norte 5 Nordeste 0 939.9 -0.9 77
2019-06-09 03:00:00 9.7 0 Calma 6 Sudeste 0 940.3 -0.3 74
2019-06-09 02:00:00 10.6 4 Sudeste 8 Sudeste 0 940.5 0.4 71
2019-06-09 01:00:00 12 3 Sudoeste 18 Noroeste 0 940.8 1.6 65
2019-06-09 00:00:00 13.2 7 Noroeste 23 Noroeste 0 940.6 2 63
2019-06-08 23:00:00 14.8 13 Noroeste 26 Noroeste 0 940.1 1.6 59
2019-06-08 22:00:00 17.4 13 Noroeste 36 Noroeste 0 939.2 0.9 50
2019-06-08 21:00:00 20.5 16 Noroeste 33 Noroeste 0 938.6 0.1 32
2019-06-08 20:00:00 21.4 19 Noroeste 40 Noroeste 0 938.5 -0.3 29
2019-06-08 19:00:00 23.9 9 Sudoeste 23 Sur 0 938.3 -0.8 12
2019-06-08 18:00:00 25.1 13 Sur 37 Sudeste 0 938.5 -1.2 12
2019-06-08 17:00:00 25.2 13 Sur 29 Sur 0 938.8 -1.6 15
2019-06-08 16:00:00 25.1 9 Sudeste 31 Sudoeste 0 939.1 -1.8 15
2019-06-08 15:00:00 22.9 8 Nordeste 22 Sur 0 939.7 -1.6 23
2019-06-08 14:00:00 22.1 10 Sur 30 Este 0 940.4 -1.3 24
2019-06-08 13:00:00 20.1 8 Nordeste 21 Nordeste 0 940.9 -1.3 27
2019-06-08 12:00:00 18.7 8 Nordeste 22 Nordeste 0 941.3 -1.1 30
2019-06-08 11:00:00 16.7 16 Nordeste 30 Este 0 941.7 -1.1 37
2019-06-08 10:00:00 14.2 19 Nordeste 31 Nordeste 0 942.2 -0.4 43
2019-06-08 09:00:00 11.7 17 Este 29 Este 0 942.4 -0.2 53
2019-06-08 08:00:00 8.7 6 Este 18 Este 0 942.8 0 66
2019-06-08 07:00:00 6 7 Nordeste 12 Norte 0 942.6 -0.3 78
2019-06-08 06:00:00 5.7 7 Noroeste 12 Noroeste 0 942.6 -0.6 82
2019-06-08 05:00:00 6 8 Norte 9 Norte 0 942.8 -0.5 80
2019-06-08 04:00:00 7.2 3 Noroeste 5 Noroeste 0 942.9 -0.3 78
2019-06-08 03:00:00 8 0 Calma 6 Norte 0 943.2 0.2 72
2019-06-08 02:00:00 8.9 2 Noroeste 10 Oeste 0 943.3 0.7 67
2019-06-08 01:00:00 9.1 8 Noroeste 19 Norte 0 943.2 1.4 65
2019-06-08 00:00:00 10.6 12 Noroeste 18 Norte 0 943 1.6 59
2019-06-07 23:00:00 11.4 10 Norte 16 Norte 0 942.6 1.5 57
2019-06-07 22:00:00 13.7 10 Norte 21 Noroeste 0 941.8 0.8 46
2019-06-07 21:00:00 16.9 6 Noroeste 21 Norte 0 941.4 0.9 34
2019-06-07 20:00:00 17.8 9 Noroeste 20 Noroeste 0 941.1 0.6 31
2019-06-07 19:00:00 16.7 9 Noroeste 26 Oeste 0 941 0.3 32
2019-06-07 18:00:00 17.9 16 Oeste 28 Oeste 0 940.5 0 32
2019-06-07 17:00:00 18 16 Oeste 27 Noroeste 0 940.5 0 32
2019-06-07 16:00:00 16 6 Oeste 26 Noroeste 0 940.7 0.5 38
2019-06-07 15:00:00 15.8 7 Oeste 18 Norte 0 940.5 0.8 42
2019-06-07 14:00:00 14.1 12 Noroeste 23 Oeste 0 940.5 1.4 47
2019-06-07 13:00:00 14.1 6 Noroeste 22 Noroeste 0 940.2 1.6 49
2019-06-07 12:00:00 13.2 8 Noroeste 25 Noroeste 0 939.7 1.7 50
2019-06-07 11:00:00 11.5 10 Noroeste 27 Oeste 0 939.1 2.1 60
2019-06-07 10:00:00 10.7 9 Oeste 26 Oeste 0 938.6 2.2 68
2019-06-07 09:00:00 9.4 7 Noroeste 18 Oeste 0 938 2.6 75
2019-06-07 08:00:00 7.2 12 Oeste 22 Noroeste 0 937 2 85
2019-06-07 07:00:00 7.1 8 Oeste 22 Sudoeste 0 936.4 1.9 83
2019-06-07 06:00:00 7.6 12 Oeste 36 Oeste 0 935.4 1.3 82
2019-06-07 05:00:00 7.9 13 Oeste 24 Oeste 0 935 1.4 82
2019-06-07 04:00:00 8.4 9 Oeste 19 Sudoeste 0 934.5 1.4 80
2019-06-07 03:00:00 8.4 6 Sudoeste 15 Sudoeste 0 934.1 1.6 81
2019-06-07 02:00:00 7.8 10 Oeste 21 Sudoeste 0 933.6 1.7 82
2019-06-07 01:00:00 8.5 8 Oeste 25 Sudoeste 0 933.1 2.3 83
2019-06-07 00:00:00 9.2 12 Oeste 37 Oeste 0 932.5 3.2 85
2019-06-06 23:00:00 9.1 21 Oeste 43 Oeste 1.2 931.9 2.6 84
2019-06-06 22:00:00 10.4 24 Oeste 56 Oeste 3.2 930.8 1.6 86
2019-06-06 21:00:00 14 19 Sudoeste 58 Sudoeste 0 929.3 -0.4 71
2019-06-06 20:00:00 15.9 35 Sudoeste 67 Sudoeste 0 929.3 -1.1 55
2019-06-06 19:00:00 17 28 Sur 62 Sudoeste 0 929.2 -1.9 46
2019-06-06 18:00:00 17.7 33 Sudoeste 59 Sur 0 929.7 -1.7 41
2019-06-06 17:00:00 18 30 Sur 59 Sur 0 930.4 -1.9 39
2019-06-06 16:00:00 19.4 37 Sur 69 Sudoeste 0 931.1 -2.1 34
2019-06-06 15:00:00 19.3 26 Sudoeste 55 Sur 0 931.4 -2.1 33
2019-06-06 14:00:00 17.8 23 Sur 48 Sudoeste 0 932.3 -1.9 32
2019-06-06 13:00:00 17.6 22 Sur 43 Sudoeste 0 933.2 -1.8 31
2019-06-06 12:00:00 17.1 20 Sur 36 Sudoeste 0 933.5 -1.8 30
2019-06-06 11:00:00 14.4 9 Sudeste 20 Sur 0 934.2 -1.4 40
2019-06-06 10:00:00 11.9 7 Sur 15 Sudeste 0 935 -0.9 53
2019-06-06 09:00:00 8.2 6 Este 13 Este 0 935.3 -0.9 66
2019-06-06 08:00:00 4.5 7 Este 12 Este 0 935.6 -1.1 78
2019-06-06 07:00:00 3.2 6 Este 10 Este 0 935.9 -0.9 79
2019-06-06 06:00:00 3.2 7 Este 9 Este 0 936.2 -0.9 78
2019-06-06 05:00:00 4.4 4 Sur 8 Oeste 0 936.7 -0.7 74
2019-06-06 04:00:00 6 4 Oeste 6 Oeste 0 936.8 -0.7 72
2019-06-06 03:00:00 6.2 0 Calma 9 Sudeste 0 937.1 -0.4 67
2019-06-06 02:00:00 7.3 2 Sudeste 6 Nordeste 0 937.4 -0.1 64
2019-06-06 01:00:00 8.8 6 Oeste 14 Noroeste 0 937.5 0.8 58
2019-06-06 00:00:00 10.3 9 Noroeste 20 Noroeste 0 937.5 1.2 51
2019-06-05 23:00:00 11.9 10 Noroeste 32 Noroeste 0 937.5 1.3 45
2019-06-05 22:00:00 13.2 16 Noroeste 33 Oeste 0 936.7 0.6 45
2019-06-05 21:00:00 14.5 16 Oeste 36 Oeste 0 936.3 0.1 39
2019-06-05 20:00:00 15.6 16 Noroeste 37 Noroeste 0 936.2 -0.2 36
2019-06-05 19:00:00 16.6 15 Noroeste 35 Noroeste 0 936.1 -0.6 35
2019-06-05 18:00:00 17.7 14 Noroeste 39 Noroeste 0 936.2 -0.5 34
2019-06-05 17:00:00 16.9 16 Oeste 40 Oeste 0 936.4 -0.8 31
2019-06-05 16:00:00 18.2 24 Oeste 44 Oeste 0 936.7 -0.4 31
2019-06-05 15:00:00 18 18 Noroeste 43 Oeste 0 936.7 -0.7 30
2019-06-05 14:00:00 15.5 19 Noroeste 44 Noroeste 0 937.2 0.1 38
2019-06-05 13:00:00 15.5 20 Noroeste 39 Oeste 0 937.1 0.2 41
2019-06-05 12:00:00 13.3 15 Noroeste 35 Noroeste 0 937.4 1 50
2019-06-05 11:00:00 13.5 16 Noroeste 32 Noroeste 0 937.1 1.2 49
2019-06-05 10:00:00 10.8 16 Noroeste 32 Noroeste 0 936.9 1.5 62
2019-06-05 09:00:00 10.1 8 Noroeste 27 Noroeste 0 936.4 1.4 70
2019-06-05 08:00:00 8 10 Noroeste 23 Oeste 0 935.9 0.9 79
2019-06-05 07:00:00 6.9 9 Noroeste 19 Noroeste 0 935.4 0.4 82
2019-06-05 06:00:00 7.7 10 Oeste 22 Oeste 0 935 0.1 78
2019-06-05 05:00:00 7.8 6 Oeste 19 Noroeste 0 935 0.1 77
2019-06-05 04:00:00 8.1 6 Noroeste 29 Oeste 0 935 0.4 76
2019-06-05 03:00:00 9.4 17 Oeste 31 Oeste 0 934.9 0.3 71
2019-06-05 02:00:00 9.8 19 Noroeste 33 Noroeste 0 934.9 0.7 69
2019-06-05 01:00:00 10.6 21 Noroeste 39 Noroeste 0 934.6 1.1 66
2019-06-05 00:00:00 12 18 Noroeste 36 Noroeste 0 934.6 1.3 59
2019-06-04 23:00:00 13.1 20 Noroeste 44 Noroeste 0 934.2 0.8 52
2019-06-04 22:00:00 15 22 Noroeste 42 Noroeste 0 933.5 -0.1 45
2019-06-04 21:00:00 15.8 19 Noroeste 37 Oeste 0 933.3 -0.5 48
2019-06-04 20:00:00 17.3 13 Noroeste 36 Oeste 0 933.4 -0.7 50
2019-06-04 19:00:00 18.4 20 Oeste 39 Oeste 0 933.6 -0.4 45
2019-06-04 18:00:00 18.7 20 Oeste 46 Noroeste 0 933.8 0.1 48
2019-06-04 17:00:00 19.1 25 Oeste 53 Noroeste 0 934.1 0.1 45
2019-06-04 16:00:00 17.4 27 Noroeste 51 Norte 0 934 -0.5 61
2019-06-04 15:00:00 22 19 Oeste 35 Noroeste 0 933.7 -1.3 40
2019-06-04 14:00:00 22.8 10 Oeste 31 Oeste 0 934 -1.6 34
2019-06-04 13:00:00 20.9 13 Oeste 30 Oeste 0 934.5 -1.3 40
2019-06-04 12:00:00 19.9 13 Sudoeste 27 Oeste 0 935 -0.6 44
2019-06-04 11:00:00 17.7 14 Oeste 28 Sudoeste 0 935.6 0.2 51
2019-06-04 10:00:00 16 16 Oeste 30 Oeste 0 935.8 0.7 57
2019-06-04 09:00:00 14.6 4 Oeste 12 Oeste 0 935.6 0.7 69
2019-06-04 08:00:00 11.9 2 Sudeste 6 Sudeste 0 935.4 0.4 83
2019-06-04 07:00:00 11.4 3 Oeste 10 Sudoeste 0 935.1 -0.2 81
2019-06-04 06:00:00 12 6 Oeste 17 Oeste 0 934.9 -0.9 81
2019-06-04 05:00:00 12.6 8 Noroeste 17 Noroeste 0 935 -1.3 81
2019-06-04 04:00:00 13 8 Noroeste 15 Noroeste 0 935.3 -1.6 82
2019-06-04 03:00:00 13.5 3 Norte 6 Oeste 0 935.8 -1.3 82
2019-06-04 02:00:00 14.6 4 Sudoeste 16 Noroeste 0 936.3 -1 77
2019-06-04 01:00:00 15.7 11 Noroeste 23 Oeste 0 936.9 0.3 74
2019-06-04 00:00:00 16.7 11 Noroeste 31 Noroeste 0 937.1 0.9 67
2019-06-03 23:00:00 18.1 17 Noroeste 35 Noroeste 0 937.3 1.5 62
2019-06-03 22:00:00 20 14 Noroeste 36 Noroeste 0 936.6 1 54
2019-06-03 21:00:00 23.2 17 Noroeste 37 Noroeste 0 936.2 0.3 44
2019-06-03 20:00:00 25.4 22 Noroeste 39 Noroeste 0 935.8 -0.2 39
2019-06-03 19:00:00 28.6 18 Oeste 40 Oeste 0 935.6 -1.1 30
2019-06-03 18:00:00 30.8 20 Sudoeste 46 Sudoeste 0 935.9 -1.6 16
2019-06-03 17:00:00 30.7 27 Oeste 43 Oeste 0 936 -2.3 16
2019-06-03 16:00:00 30.9 20 Sur 37 Sur 0 936.7 -2.2 15
2019-06-03 15:00:00 29.3 14 Sudoeste 30 Sudoeste 0 937.5 -1.7 17
2019-06-03 14:00:00 28 13 Sudoeste 31 Noroeste 0 938.3 -1 20
2019-06-03 13:00:00 25.9 6 Norte 23 Sur 0 938.9 -0.8 23
2019-06-03 12:00:00 24.3 5 Oeste 21 Noroeste 0 939.2 -0.6 25
2019-06-03 11:00:00 21.7 6 Oeste 15 Oeste 0 939.3 -0.4 30
2019-06-03 10:00:00 19.6 5 Sudoeste 9 Sur 0 939.7 0.2 35
2019-06-03 09:00:00 14 5 Este 7 Sudeste 0 939.8 0.5 60
2019-06-03 08:00:00 11.4 3 Sudeste 9 Sudeste 0 939.7 0.1 68
2019-06-03 07:00:00 10.7 4 Sudeste 9 Este 0 939.5 -0.2 70
2019-06-03 06:00:00 11.5 8 Este 11 Sudeste 0 939.3 -0.5 67
2019-06-03 05:00:00 13.1 6 Este 9 Este 0 939.6 -0.6 62
2019-06-03 04:00:00 14.3 5 Este 8 Sudeste 0 939.7 -0.6 58
2019-06-03 03:00:00 16.2 4 Nordeste 13 Oeste 0 939.8 -0.3 52
2019-06-03 02:00:00 17.2 3 Norte 11 Noroeste 0 940.2 0.3 47
2019-06-03 01:00:00 19 6 Noroeste 12 Noroeste 0 940.3 0.8 41
2019-06-03 00:00:00 20.6 7 Oeste 10 Oeste 0 940.1 1 34
2019-06-02 23:00:00 21.9 7 Noroeste 15 Noroeste 0 939.9 1.2 30
2019-06-02 22:00:00 23.8 6 Noroeste 25 Noroeste 0 939.5 1 27
2019-06-02 21:00:00 25.8 13 Noroeste 35 Oeste 0 939.1 0.6 22
2019-06-02 20:00:00 27.5 21 Noroeste 37 Noroeste 0 938.7 0.1 17
2019-06-02 19:00:00 29.6 20 Noroeste 40 Noroeste 0 938.5 -0.2 14
2019-06-02 18:00:00 31.4 16 Noroeste 37 Oeste 0 938.5 -0.6 13
2019-06-02 17:00:00 31.9 21 Oeste 41 Oeste 0 938.6 -1.2 12
2019-06-02 16:00:00 31.8 22 Oeste 47 Sudoeste 0 938.7 -1.9 12
2019-06-02 15:00:00 32.1 17 Sudoeste 44 Oeste 0 939.1 -1.7 12
2019-06-02 14:00:00 31 13 Sudoeste 31 Sudoeste 0 939.8 -1.2 12
2019-06-02 13:00:00 30 9 Sudoeste 19 Sur 0 940.6 -0.6 12
2019-06-02 12:00:00 28.1 6 Este 14 Sudeste 0 940.8 -0.2 14
2019-06-02 11:00:00 25.2 6 Sudeste 13 Este 0 941 0.1 24
2019-06-02 10:00:00 21.8 2 Sudoeste 8 Noroeste 0 941.2 0.6 29
2019-06-02 09:00:00 16.9 4 Sudeste 11 Este 0 941 0.6 46
2019-06-02 08:00:00 13.1 7 Este 12 Este 0 940.9 0.5 59
2019-06-02 07:00:00 12.4 9 Sudeste 10 Sudeste 0 940.6 -0.1 58
2019-06-02 06:00:00 13.8 6 Este 10 Este 0 940.4 -0.6 53
2019-06-02 05:00:00 13.9 10 Sudeste 12 Este 0 940.4 -0.6 52
2019-06-02 04:00:00 14.5 9 Este 10 Este 0 940.7 -0.3 49
2019-06-02 03:00:00 16.4 4 Sudeste 8 Este 0 941 0.2 42
2019-06-02 02:00:00 18.4 3 Sudeste 8 Este 0 941 0.5 39
2019-06-02 01:00:00 20.7 5 Sudoeste 14 Norte 0 941 1.1 30
2019-06-02 00:00:00 22.4 9 Noroeste 21 Noroeste 0 940.8 1.5 25
2019-06-01 23:00:00 24.5 14 Noroeste 23 Norte 0 940.5 1.5 25
2019-06-01 22:00:00 26.9 14 Noroeste 30 Noroeste 0 939.9 0.9 24
2019-06-01 21:00:00 30.8 9 Oeste 31 Sudoeste 0 939.3 0.1 17
2019-06-01 20:00:00 32.5 15 Oeste 31 Sudoeste 0 939 -0.7 13
2019-06-01 19:00:00 33.5 17 Sudoeste 32 Oeste 0 939 -1.1 12
2019-06-01 18:00:00 33.6 8 Oeste 31 Sur 0 939.2 -1.5 13
2019-06-01 17:00:00 33.4 17 Sur 31 Sudoeste 0 939.7 -1.6 13
2019-06-01 16:00:00 33.9 17 Sur 30 Sudoeste 0 940.1 -1.6 12
2019-06-01 15:00:00 33.2 11 Sudoeste 28 Sudoeste 0 940.7 -1.3 11
2019-06-01 14:00:00 33.2 12 Sudeste 24 Sur 0 941.3 -0.9 12
2019-06-01 13:00:00 31.7 13 Oeste 26 Sudoeste 0 941.7 -0.6 13
2019-06-01 12:00:00 30.2 8 Sudeste 20 Sur 0 942 -0.1 17
2019-06-01 11:00:00 26.7 5 Sur 15 Sudeste 0 942.2 -0.1 24
2019-06-01 10:00:00 22.2 4 Este 12 Este 0 942.3 0.3 37
2019-06-01 09:00:00 17.1 6 Este 13 Sudeste 0 942.1 0.3 47
2019-06-01 08:00:00 13.7 4 Sudeste 9 Sudeste 0 942.3 0.5 56
2019-06-01 07:00:00 12.4 9 Sudeste 12 Sudeste 0 942 0.2 57
2019-06-01 06:00:00 12.5 12 Sudeste 14 Sudeste 0 941.8 -0.2 57
2019-06-01 05:00:00 13.4 9 Este 11 Este 0 941.8 -0.3 54
2019-06-01 04:00:00 14 7 Este 12 Este 0 941.8 -0.3 51
2019-06-01 03:00:00 15.5 5 Este 11 Sudeste 0 942 0 43
2019-06-01 02:00:00 17.1 4 Este 15 Este 0 942.1 0.5 40
2019-06-01 01:00:00 19 6 Noroeste 19 Oeste 0 942.1 0.8 32
2019-06-01 00:00:00 21.3 4 Sur 13 Norte 0 942 0.9 26
2019-05-31 23:00:00 22.6 13 Norte 15 Norte 0 941.6 0.5 24
2019-05-31 22:00:00 25.4 12 Norte 13 Norte 0 941.3 -0.1 21
2019-05-31 21:00:00 30 9 Norte 18 Norte 0 941.1 -0.6 13
2019-05-31 20:00:00 31.6 9 Norte 30 Noroeste 0 941.1 -1 12
2019-05-31 19:00:00 31.7 8 Nordeste 27 Norte 0 941.4 -1.1 11
2019-05-31 18:00:00 32 8 Sudeste 31 Nordeste 0 941.7 -1.3 12
2019-05-31 17:00:00 32.3 10 Norte 30 Nordeste 0 942.1 -1.4 12
2019-05-31 16:00:00 32 14 Norte 29 Norte 0 942.5 -1.4 12
2019-05-31 15:00:00 31.3 9 Norte 29 Norte 0 943 -1.1 13
2019-05-31 14:00:00 30.8 11 Norte 26 Norte 0 943.5 -1 13
2019-05-31 13:00:00 29.7 5 Sudoeste 16 Oeste 0 943.9 -0.6 15
2019-05-31 12:00:00 27.5 5 Oeste 16 Norte 0 944.1 -0.2 19
2019-05-31 11:00:00 24.1 8 Noroeste 15 Oeste 0 944.5 0.3 24
2019-05-31 10:00:00 20.3 3 Oeste 10 Oeste 0 944.5 0.8 32
2019-05-31 09:00:00 16.6 3 Noroeste 9 Norte 0 944.3 0.9 39
2019-05-31 08:00:00 12.4 3 Nordeste 8 Sur 0 944.2 0.7 51
2019-05-31 07:00:00 9.6 4 Este 8 Sudeste 0 943.7 0 61
2019-05-31 06:00:00 11 6 Sudoeste 10 Sur 0 943.4 -0.6 57
2019-05-31 05:00:00 14.6 4 Este 10 Norte 0 943.5 -0.6 41
2019-05-31 04:00:00 14.7 6 Noroeste 11 Oeste 0 943.7 -0.6 39
2019-05-31 03:00:00 17.6 4 Sudeste 13 Este 0 944 -0.2 33
2019-05-31 02:00:00 19.1 7 Sudeste 26 Este 0 944.1 0.2 29
2019-05-31 01:00:00 20.3 10 Este 24 Este 0 944.3 0.9 25
2019-05-31 00:00:00 21.2 9 Este 15 Nordeste 0 944.2 1.1 23
2019-05-30 23:00:00 23.5 15 Nordeste 22 Nordeste 0 943.9 0.9 22
2019-05-30 22:00:00 24.9 17 Nordeste 26 Nordeste 0 943.4 0.2 18
2019-05-30 21:00:00 28 15 Nordeste 30 Nordeste 0 943.1 -0.4 14
2019-05-30 20:00:00 29.1 17 Nordeste 38 Nordeste 0 943 -1 13
2019-05-30 19:00:00 29.7 21 Nordeste 36 Nordeste 0 943.2 -1 12
2019-05-30 18:00:00 30.1 19 Nordeste 32 Nordeste 0 943.5 -1.2 10
2019-05-30 17:00:00 30.3 18 Nordeste 35 Norte 0 944 -1.2 10
2019-05-30 16:00:00 29.7 16 Nordeste 39 Nordeste 0 944.2 -1.3 11
2019-05-30 15:00:00 29.3 14 Este 38 Nordeste 0 944.7 -1.2 13
2019-05-30 14:00:00 27.4 21 Nordeste 36 Nordeste 0 945.2 -0.8 16
2019-05-30 13:00:00 26.3 21 Este 37 Nordeste 0 945.5 -0.7 20
2019-05-30 12:00:00 24.4 18 Nordeste 34 Este 0 945.9 -0.4 26
2019-05-30 11:00:00 22.4 22 Nordeste 37 Nordeste 0 946 0 30
2019-05-30 10:00:00 20.1 21 Nordeste 32 Nordeste 0 946.2 0.7 33
2019-05-30 09:00:00 17.5 12 Nordeste 22 Nordeste 0 946.3 1.4 43
2019-05-30 08:00:00 12.8 3 Sudeste 10 Norte 0 946 1 56
2019-05-30 07:00:00 11.1 3 Sudeste 7 Nordeste 0 945.5 0.4 60
2019-05-30 06:00:00 13 4 Nordeste 12 Este 0 944.9 -0.4 48
2019-05-30 05:00:00 14.6 6 Sudeste 23 Nordeste 0 945 -0.4 43
2019-05-30 04:00:00 16.3 16 Nordeste 26 Este 0 945.1 -0.2 40
2019-05-30 03:00:00 15.9 9 Este 24 Este 0 945.3 0.2 40
2019-05-30 02:00:00 16.8 16 Este 26 Este 0 945.4 0.6 38
2019-05-30 01:00:00 17.3 15 Este 20 Este 0 945.3 1.3 38
2019-05-30 00:00:00 18.1 12 Este 27 Este 0 945.1 1.4 35
2019-05-29 23:00:00 20.3 16 Nordeste 27 Este 0 944.8 1.6 31
2019-05-29 22:00:00 21.5 13 Nordeste 28 Nordeste 0 944 0.7 33
2019-05-29 21:00:00 23.9 23 Nordeste 39 Nordeste 0 943.7 0.3 25
2019-05-29 20:00:00 25.2 22 Nordeste 40 Nordeste 0 943.2 -0.5 23
2019-05-29 19:00:00 25.7 21 Nordeste 43 Nordeste 0 943.3 -0.5 22
2019-05-29 18:00:00 25.6 26 Nordeste 43 Nordeste 0 943.4 -0.9 22
2019-05-29 17:00:00 25.7 23 Nordeste 40 Nordeste 0 943.7 -0.9 22
2019-05-29 16:00:00 24.9 21 Nordeste 56 Nordeste 0 943.8 -1.2 22
2019-05-29 15:00:00 24.1 22 Nordeste 41 Nordeste 0 944.3 -0.7 23
2019-05-29 14:00:00 22.8 23 Nordeste 39 Nordeste 0 944.6 -0.6 25
2019-05-29 13:00:00 21.2 20 Nordeste 41 Nordeste 0 945 -0.1 28
2019-05-29 12:00:00 19.2 24 Nordeste 44 Nordeste 0 945 0.2 32
2019-05-29 11:00:00 17.4 29 Nordeste 49 Nordeste 0 945.2 0.8 37
2019-05-29 10:00:00 15.6 24 Este 39 Nordeste 0 945.1 1.5 40
2019-05-29 09:00:00 12.9 23 Este 38 Este 0 944.8 2 46
2019-05-29 08:00:00 11.1 14 Este 28 Nordeste 0 944.4 1.9 53
2019-05-29 07:00:00 10.2 20 Este 47 Nordeste 0 943.6 1.2 54
2019-05-29 06:00:00 11.3 34 Nordeste 50 Este 0 942.8 0.5 52
2019-05-29 05:00:00 12.1 32 Este 52 Nordeste 0 942.5 0.4 46
2019-05-29 04:00:00 13.1 32 Este 55 Nordeste 0 942.4 0.6 39
2019-05-29 03:00:00 14.1 39 Nordeste 58 Este 0 942.3 1.2 37
2019-05-29 02:00:00 15.2 37 Nordeste 54 Nordeste 0 942.1 1.7 43
2019-05-29 01:00:00 16.7 33 Nordeste 50 Nordeste 0 941.8 2 43
2019-05-29 00:00:00 18.8 31 Nordeste 45 Nordeste 0 941.1 1.7 31
2019-05-28 23:00:00 19.4 13 Nordeste 19 Nordeste 0 940.4 1.2 29
2019-05-28 22:00:00 20.9 13 Nordeste 22 Nordeste 0 939.8 0.8 27
2019-05-28 21:00:00 23.6 13 Nordeste 31 Norte 0 939.4 0.2 22
2019-05-28 20:00:00 24.5 14 Nordeste 33 Nordeste 0 939.2 0 20
2019-05-28 19:00:00 24.7 22 Nordeste 41 Nordeste 0 939 -0.4 20
2019-05-28 18:00:00 25.2 23 Norte 48 Norte 0 939.2 -0.6 18
2019-05-28 17:00:00 25.7 18 Norte 36 Nordeste 0 939.2 -0.8 18
2019-05-28 16:00:00 24.6 21 Nordeste 36 Nordeste 0 939.4 -0.8 19
2019-05-28 15:00:00 23.8 19 Nordeste 41 Norte 0 939.8 -0.2 19
2019-05-28 14:00:00 22.1 20 Nordeste 42 Nordeste 0 940 0.2 22
2019-05-28 13:00:00 20.8 20 Nordeste 40 Nordeste 0 940.2 0.6 25
2019-05-28 12:00:00 19.1 24 Nordeste 42 Nordeste 0 940 0.9 31
2019-05-28 11:00:00 17.9 25 Nordeste 39 Nordeste 0 939.8 1.3 33
2019-05-28 10:00:00 16.1 17 Nordeste 35 Nordeste 0 939.6 1.3 44
2019-05-28 09:00:00 14.7 14 Nordeste 23 Nordeste 0 939.1 1.6 52
2019-05-28 08:00:00 12 13 Este 26 Este 0 938.5 1.2 62
2019-05-28 07:00:00 11.8 11 Nordeste 39 Nordeste 0 938.3 1.2 61
2019-05-28 06:00:00 12.7 12 Nordeste 30 Nordeste 0 937.5 0.4 62
2019-05-28 05:00:00 13.6 9 Nordeste 22 Nordeste 0 937.3 0.1 62
2019-05-28 04:00:00 14.6 9 Nordeste 26 Nordeste 0 937.1 -0.2 61
2019-05-28 03:00:00 14.5 9 Norte 16 Norte 0 937.1 0.5 61
2019-05-28 02:00:00 14.9 10 Noroeste 17 Norte 0 937.2 0.9 56
2019-05-28 01:00:00 16.4 7 Noroeste 32 Noroeste 0 937.3 1.6 50
2019-05-28 00:00:00 17.7 12 Noroeste 27 Noroeste 0 936.6 1 47
2019-05-27 23:00:00 19.3 16 Norte 25 Norte 0 936.3 1.1 43
2019-05-27 22:00:00 21.1 12 Norte 32 Norte 0 935.7 0.5 34
2019-05-27 21:00:00 24.4 15 Noroeste 33 Norte 0 935.6 0.2 28
2019-05-27 20:00:00 26.1 17 Noroeste 35 Norte 0 935.2 -0.6 24
2019-05-27 19:00:00 26.8 10 Norte 37 Norte 0 935.2 -1.1 25
2019-05-27 18:00:00 27.2 13 Noroeste 34 Norte 0 935.4 -1.2 25
2019-05-27 17:00:00 27 14 Noroeste 45 Noroeste 0 935.8 -1.2 23
2019-05-27 16:00:00 26.4 19 Noroeste 37 Noroeste 0 936.3 -1.1 25
2019-05-27 15:00:00 26.1 16 Noroeste 36 Norte 0 936.6 -1.2 28
2019-05-27 14:00:00 25.7 15 Norte 36 Norte 0 937 -1.3 28
2019-05-27 13:00:00 25.1 8 Nordeste 23 Norte 0 937.4 -1 28
2019-05-27 12:00:00 23.5 9 Norte 21 Norte 0 937.8 -0.7 31
2019-05-27 11:00:00 22 6 Oeste 13 Noroeste 0 938.3 0 40
2019-05-27 10:00:00 19.3 4 Nordeste 10 Nordeste 0 938.4 0.3 48
2019-05-27 09:00:00 16.1 0 Calma 12 Sudeste 0 938.5 0.6 58
2019-05-27 08:00:00 13.6 2 Sur 6 Sudeste 0 938.3 0.1 66
2019-05-27 07:00:00 11.1 5 Este 9 Sudeste 0 938.1 -0.1 72
2019-05-27 06:00:00 11.8 4 Este 10 Sudeste 0 937.9 -0.9 69
2019-05-27 05:00:00 13.9 4 Este 9 Este 0 938.2 -0.8 59
2019-05-27 04:00:00 13.3 5 Este 10 Este 0 938.2 -0.9 61
2019-05-27 03:00:00 14.4 6 Sudeste 13 Sudoeste 0 938.8 -0.7 57
2019-05-27 02:00:00 15.9 3 Noroeste 18 Noroeste 0 939 -0.3 50
2019-05-27 01:00:00 17.7 12 Noroeste 20 Noroeste 0 939.1 0.5 44
2019-05-27 00:00:00 18.3 7 Noroeste 14 Norte 0 939.5 0.7 44
2019-05-26 23:00:00 20.5 9 Noroeste 18 Noroeste 0 939.3 0.5 38
2019-05-26 22:00:00 23.4 5 Nordeste 19 Norte 0 938.6 -0.4 31
2019-05-26 21:00:00 25.9 12 Norte 26 Norte 0 938.8 -0.8 26
2019-05-26 20:00:00 26.9 15 Norte 30 Norte 0 938.8 -1.1 23
2019-05-26 19:00:00 27.2 14 Nordeste 36 Norte 0 939 -1.4 22
2019-05-26 18:00:00 27.1 17 Norte 38 Norte 0 939.6 -1.4 22
2019-05-26 17:00:00 27.2 15 Norte 37 Norte 0 939.9 -1.6 23
2019-05-26 16:00:00 26.3 17 Nordeste 32 Nordeste 0 940.4 -1.7 24
2019-05-26 15:00:00 25.2 15 Norte 36 Nordeste 0 941 -1.3 28
2019-05-26 14:00:00 23.6 14 Norte 32 Norte 0 941.5 -1.1 30
2019-05-26 13:00:00 22.6 15 Norte 32 Norte 0 942.1 -0.7 32
2019-05-26 12:00:00 20.4 12 Norte 32 Nordeste 0 942.3 -0.6 37
2019-05-26 11:00:00 18.5 17 Nordeste 28 Nordeste 0 942.6 0.1 41
2019-05-26 10:00:00 16.5 15 Nordeste 32 Nordeste 0 942.8 0.5 47
2019-05-26 09:00:00 13.9 18 Nordeste 35 Este 0 942.9 0.8 50
2019-05-26 08:00:00 12 23 Este 37 Este 0 942.5 0.4 53
2019-05-26 07:00:00 11 19 Este 36 Este 0 942.3 0.4 54
2019-05-26 06:00:00 12.2 23 Este 35 Nordeste 0 942.1 0.3 49
2019-05-26 05:00:00 12.9 21 Este 37 Nordeste 0 942.1 0.1 49
2019-05-26 04:00:00 14 26 Nordeste 42 Este 0 941.9 -0.1 47
2019-05-26 03:00:00 14.7 28 Nordeste 40 Este 0 941.8 -0.1 46
2019-05-26 02:00:00 15.3 7 Este 15 Nordeste 0 942 0.4 39
2019-05-26 01:00:00 14.4 3 Sudeste 8 Norte 0 942 0.8 44
2019-05-26 00:00:00 15.2 4 Nordeste 15 Este 0 941.9 0.8 40
2019-05-25 23:00:00 16.4 11 Norte 19 Nordeste 0 941.6 0.6 35
2019-05-25 22:00:00 19.4 12 Nordeste 24 Norte 0 941.2 0.3 28
2019-05-25 21:00:00 21.9 15 Norte 35 Norte 0 941.1 0.1 23
2019-05-25 20:00:00 23 19 Norte 36 Norte 0 941 0.1 21
2019-05-25 19:00:00 23.3 21 Norte 38 Nordeste 0 940.9 -0.3 22
2019-05-25 18:00:00 23.9 18 Norte 44 Norte 0 941 -0.5 22
2019-05-25 17:00:00 23.2 18 Nordeste 38 Nordeste 0 940.9 -1.1 22
2019-05-25 16:00:00 22.8 19 Nordeste 44 Nordeste 0 941.2 -1.1 24
2019-05-25 15:00:00 22.3 18 Nordeste 38 Norte 0 941.5 -1.1 26
2019-05-25 14:00:00 21 22 Nordeste 42 Nordeste 0 942 -0.6 30
2019-05-25 13:00:00 19.5 25 Nordeste 50 Nordeste 0 942.3 -0.3 35
2019-05-25 12:00:00 17.6 28 Nordeste 50 Nordeste 0 942.6 0.4 41
2019-05-25 11:00:00 16.7 27 Nordeste 50 Nordeste 0 942.6 0.6 44
2019-05-25 10:00:00 14.7 29 Este 49 Este 0 942.6 0.9 51
2019-05-25 09:00:00 12.5 23 Este 40 Nordeste 0 942.2 0.9 61
2019-05-25 08:00:00 10.7 22 Nordeste 36 Nordeste 0 942 1 69
2019-05-25 07:00:00 10.3 23 Nordeste 38 Nordeste 0 941.7 0.7 72
2019-05-25 06:00:00 10.5 22 Nordeste 38 Nordeste 0 941.3 0.1 70
2019-05-25 05:00:00 10.9 22 Nordeste 40 Nordeste 0 941 0.3 67
2019-05-25 04:00:00 11.5 23 Nordeste 42 Nordeste 0 941 0.3 66
2019-05-25 03:00:00 12.2 21 Nordeste 44 Nordeste 0 941.2 1.3 60
2019-05-25 02:00:00 13.5 31 Nordeste 50 Nordeste 0 940.7 1.5 53
2019-05-25 01:00:00 14.8 27 Nordeste 50 Nordeste 0 940.7 2.3 48
2019-05-25 00:00:00 16.8 28 Nordeste 42 Nordeste 0 939.9 1.9 40
2019-05-24 23:00:00 18.1 18 Nordeste 32 Nordeste 0 939.2 1.6 26
2019-05-24 22:00:00 19.5 14 Nordeste 29 Nordeste 0 938.4 0.7 22
2019-05-24 21:00:00 21.7 18 Nordeste 39 Norte 0 938 0.3 20
2019-05-24 20:00:00 22.5 17 Nordeste 38 Nordeste 0 937.6 -0.4 18
2019-05-24 19:00:00 22.9 19 Norte 43 Nordeste 0 937.7 -0.7 17
2019-05-24 18:00:00 22.9 26 Nordeste 44 Nordeste 0 937.7 -1 18
2019-05-24 17:00:00 22.9 24 Nordeste 46 Nordeste 0 938 -0.9 19
2019-05-24 16:00:00 23 20 Norte 49 Norte 0 938.4 -0.7 24
2019-05-24 15:00:00 22 24 Norte 44 Nordeste 0 938.7 -0.7 26
2019-05-24 14:00:00 21.2 20 Norte 46 Norte 0 938.9 -0.6 23
2019-05-24 13:00:00 20.1 21 Norte 41 Nordeste 0 939.1 -0.3 28
2019-05-24 12:00:00 18.6 25 Nordeste 44 Nordeste 0 939.4 0 37
2019-05-24 11:00:00 17.1 26 Nordeste 41 Norte 0 939.5 0.7 46
2019-05-24 10:00:00 15.4 17 Nordeste 37 Nordeste 0 939.4 0.7 56
2019-05-24 09:00:00 12.4 14 Norte 28 Norte 0 939.4 0.9 63
2019-05-24 08:00:00 10 15 Norte 25 Norte 0 938.8 0.2 69
2019-05-24 07:00:00 9 9 Norte 21 Norte 0 938.7 -0.2 71
2019-05-24 06:00:00 9.4 13 Norte 20 Norte 0 938.5 -1 69
2019-05-24 05:00:00 10.6 9 Noroeste 15 Norte 0 938.6 -1.3 69
2019-05-24 04:00:00 11.5 6 Noroeste 18 Norte 0 938.9 -0.9 65
2019-05-24 03:00:00 12.2 6 Norte 16 Norte 0 939.5 0 65
2019-05-24 02:00:00 13 7 Noroeste 20 Noroeste 0 939.9 0.2 66
2019-05-24 01:00:00 14.1 9 Noroeste 17 Noroeste 0 939.8 0.7 64
2019-05-24 00:00:00 15.1 8 Noroeste 21 Noroeste 0 939.5 0.7 59
2019-05-23 23:00:00 16 13 Noroeste 29 Oeste 0 939.7 1.5 56
2019-05-23 22:00:00 17.4 14 Noroeste 39 Noroeste 0 939.1 0.9 49
2019-05-23 21:00:00 19.7 18 Noroeste 42 Noroeste 0 938.8 0.6 45
2019-05-23 20:00:00 22.1 19 Noroeste 44 Oeste 0 938.2 0 40
2019-05-23 19:00:00 23.5 19 Oeste 38 Oeste 0 938.2 -0.6 30
2019-05-23 18:00:00 25.1 18 Oeste 35 Noroeste 0 938.2 -1.1 25
2019-05-23 17:00:00 26 13 Oeste 30 Oeste 0 938.2 -1.3 24
2019-05-23 16:00:00 25.9 16 Oeste 32 Noroeste 0 938.8 -1.2 21
2019-05-23 15:00:00 24.8 14 Noroeste 28 Oeste 0 939.3 -1 25
2019-05-23 14:00:00 23.4 10 Noroeste 26 Noroeste 0 939.5 -1 29
2019-05-23 13:00:00 22 12 Noroeste 26 Norte 0 940 -0.3 37
2019-05-23 12:00:00 19.5 10 Noroeste 25 Norte 0 940.3 0.5 47
2019-05-23 11:00:00 18.7 11 Norte 24 Norte 0 940.5 1 51
2019-05-23 10:00:00 15.6 8 Noroeste 17 Noroeste 0 940.3 1.1 61
2019-05-23 09:00:00 12.3 6 Noroeste 12 Norte 0 939.8 0.5 78
2019-05-23 08:00:00 10.1 4 Norte 12 Oeste 0 939.5 -0.3 85
2019-05-23 07:00:00 10.5 4 Este 10 Este 0 939.2 -0.6 84
2019-05-23 06:00:00 9.8 6 Este 9 Este 0 939.3 -0.9 83
2019-05-23 05:00:00 10.3 4 Sudeste 7 Sudeste 0 939.8 -0.5 82
2019-05-23 04:00:00 11.5 5 Sudeste 7 Este 0 939.8 -0.6 79
2019-05-23 03:00:00 12.9 4 Noroeste 7 Noroeste 0 940.2 0.1 75
2019-05-23 02:00:00 13.9 3 Norte 10 Noroeste 0 940.3 0.7 73
2019-05-23 01:00:00 15.4 2 Norte 15 Noroeste 0 940.4 1.6 68
2019-05-23 00:00:00 16.5 11 Noroeste 28 Noroeste 0 940.1 2.1 65
2019-05-22 23:00:00 18 13 Noroeste 23 Noroeste 0 939.6 1.9 58
2019-05-22 22:00:00 20.3 13 Oeste 33 Noroeste 0 938.8 1.2 52
2019-05-22 21:00:00 25.8 10 Oeste 22 Oeste 0 938 0.2 23
2019-05-22 20:00:00 26.5 12 Sudoeste 22 Sur 0 937.7 -0.2 20
2019-05-22 19:00:00 25.6 10 Sudoeste 23 Sudoeste 0 937.6 -0.7 21
2019-05-22 18:00:00 27.8 12 Sudoeste 27 Sudoeste 0 937.8 -1 19
2019-05-22 17:00:00 25.6 9 Sudoeste 25 Sudoeste 0 937.9 -1.1 25
2019-05-22 16:00:00 27.3 8 Sur 25 Sudeste 0 938.3 -1 22
2019-05-22 15:00:00 26.7 6 Sur 16 Noroeste 0 938.8 -0.8 23
2019-05-22 14:00:00 26.2 9 Sudeste 18 Sudeste 0 939 -0.7 21
2019-05-22 13:00:00 24.4 7 Oeste 15 Sudoeste 0 939.3 -0.3 27
2019-05-22 12:00:00 21.6 5 Oeste 12 Oeste 0 939.6 0.3 34
2019-05-22 11:00:00 19 5 Nordeste 10 Este 0 939.7 0.7 49
2019-05-22 10:00:00 15.6 3 Oeste 8 Oeste 0 939.6 0.8 62
2019-05-22 09:00:00 12.6 2 Este 8 Este 0 939.3 0.6 69
2019-05-22 08:00:00 9 5 Sudeste 8 Sudeste 0 939 0.3 81
2019-05-22 07:00:00 7.3 7 Este 10 Este 0 938.8 -0.1 84
2019-05-22 06:00:00 8 5 Este 8 Este 0 938.7 -0.2 83
2019-05-22 05:00:00 9.4 4 Sudeste 9 Sudeste 0 938.7 -0.1 78
2019-05-22 04:00:00 10.1 5 Sudeste 16 Este 0 938.9 0.5 80
2019-05-22 03:00:00 11.6 5 Este 8 Este 0 938.9 0.6 76
2019-05-22 02:00:00 13.2 4 Noroeste 15 Norte 0 938.8 1.1 75
2019-05-22 01:00:00 13.8 9 Noroeste 15 Noroeste 0 938.4 1.3 73
2019-05-22 00:00:00 15.2 7 Noroeste 22 Oeste 0 938.3 1.6 56
2019-05-21 23:00:00 16 11 Norte 15 Norte 0 937.7 1.5 42
2019-05-21 22:00:00 18.2 9 Norte 18 Norte 0 937.1 0.9 35
2019-05-21 21:00:00 21.9 12 Norte 26 Norte 0 936.7 0.5 27
2019-05-21 20:00:00 23.1 12 Norte 20 Norte 0 936.2 -0.2 25
2019-05-21 19:00:00 23.4 9 Norte 24 Nordeste 0 936.2 -0.4 24
2019-05-21 18:00:00 24.1 8 Este 28 Nordeste 0 936.2 -0.6 23
2019-05-21 17:00:00 24.1 8 Oeste 23 Noroeste 0 936.4 -0.6 22
2019-05-21 16:00:00 23 8 Noroeste 23 Nordeste 0 936.6 -0.6 26
2019-05-21 15:00:00 22.5 9 Noroeste 26 Norte 0 936.8 -0.6 25
2019-05-21 14:00:00 21.8 6 Oeste 22 Nordeste 0 937 -0.6 27
2019-05-21 13:00:00 20 9 Norte 25 Norte 0 937.2 -0.6 32
2019-05-21 12:00:00 18.1 8 Norte 18 Nordeste 0 937.4 -0.2 40
2019-05-21 11:00:00 16.4 5 Norte 14 Oeste 0 937.6 0.5 49
2019-05-21 10:00:00 13.4 4 Noroeste 9 Oeste 0 937.8 0.9 57
2019-05-21 09:00:00 9.9 3 Sudoeste 8 Este 0 937.6 0.8 69
2019-05-21 08:00:00 6.4 4 Sudeste 10 Este 0 937.1 0.4 81
2019-05-21 07:00:00 4.8 8 Sudeste 8 Este 0 936.9 0.2 84
2019-05-21 06:00:00 5.5 5 Este 9 Este 0 936.8 0.1 82
2019-05-21 05:00:00 6.1 7 Este 9 Este 0 936.7 -0.2 79
2019-05-21 04:00:00 7.2 3 Este 8 Sudeste 0 936.7 0.1 76
2019-05-21 03:00:00 8.8 3 Este 14 Oeste 0 936.7 0.2 73
2019-05-21 02:00:00 10.1 7 Oeste 16 Noroeste 0 936.9 0.7 71
2019-05-21 01:00:00 10.9 10 Noroeste 17 Noroeste 0 936.6 1.1 66
2019-05-21 00:00:00 11.1 7 Noroeste 15 Noroeste 0 936.5 1.4 55
2019-05-20 23:00:00 12.9 8 Noroeste 13 Oeste 0 936.2 1.2 48
2019-05-20 22:00:00 15.2 8 Noroeste 26 Noroeste 0 935.5 0.7 38
2019-05-20 21:00:00 17.8 14 Noroeste 26 Noroeste 0 935.1 0.4 31
2019-05-20 20:00:00 17.2 5 Noroeste 48 Noroeste 0 935 0.2 36
2019-05-20 19:00:00 18.2 22 Oeste 41 Noroeste 0 934.8 -0.2 32
2019-05-20 18:00:00 19.5 10 Noroeste 28 Noroeste 0 934.7 -0.7 29
2019-05-20 17:00:00 19.7 14 Oeste 33 Noroeste 0 934.8 -0.6 27
2019-05-20 16:00:00 19.8 12 Noroeste 32 Noroeste 0 935 -0.8 26
2019-05-20 15:00:00 19.2 14 Oeste 35 Noroeste 0 935.4 -0.4 25
2019-05-20 14:00:00 18.7 10 Noroeste 25 Oeste 0 935.4 -0.6 30
2019-05-20 13:00:00 17.4 7 Oeste 18 Noroeste 0 935.8 -0.3 34
2019-05-20 12:00:00 15.6 6 Sudoeste 20 Norte 0 935.8 0 40
2019-05-20 11:00:00 14.1 4 Noroeste 13 Noroeste 0 936 0.7 48
2019-05-20 10:00:00 11 4 Oeste 9 Sudoeste 0 936.1 1.3 63
2019-05-20 09:00:00 6.9 3 Este 6 Este 0 935.8 1.1 75
2019-05-20 08:00:00 4.9 0 Calma 8 Oeste 0 935.3 0.1 80
2019-05-20 07:00:00 4.3 5 Sudeste 10 Este 0 934.8 -0.4 79
2019-05-20 06:00:00 3.8 7 Este 9 Este 0 934.7 -0.7 81
2019-05-20 05:00:00 4.4 5 Sudeste 8 Este 0 935.2 -0.3 78
2019-05-20 04:00:00 6.2 2 Nordeste 6 Norte 0 935.2 -0.2 71
2019-05-20 03:00:00 6.5 3 Sudeste 6 Este 0 935.4 0 70
2019-05-20 02:00:00 7.9 3 Sur 8 Norte 0 935.5 0.3 68
2019-05-20 01:00:00 9.3 3 Noroeste 15 Noroeste 0 935.4 1 63
2019-05-20 00:00:00 10.1 8 Noroeste 18 Noroeste 0 935.4 1.3 56
2019-05-19 23:00:00 11.9 8 Noroeste 16 Noroeste 0 935.2 1.5 46
2019-05-19 22:00:00 13.7 9 Noroeste 23 Noroeste 0 934.4 0.7 38
2019-05-19 21:00:00 15.8 14 Oeste 28 Oeste 0 934.1 0.2 31
2019-05-19 20:00:00 18.4 13 Noroeste 40 Noroeste 0 933.7 -0.6 24
2019-05-19 19:00:00 19 15 Noroeste 35 Noroeste 0 933.7 -1.2 20
2019-05-19 18:00:00 19 10 Noroeste 37 Noroeste 0 933.9 -1.2 21
2019-05-19 17:00:00 18.6 18 Noroeste 36 Norte 0 934.3 -1.1 19
2019-05-19 16:00:00 18.4 14 Noroeste 34 Noroeste 0 934.9 -0.7 17
2019-05-19 15:00:00 17.4 13 Norte 34 Norte 0 935.1 -0.8 21
2019-05-19 14:00:00 16.5 10 Noroeste 26 Noroeste 0 935.4 -0.4 25
2019-05-19 13:00:00 15.1 7 Noroeste 25 Norte 0 935.6 -0.4 31
2019-05-19 12:00:00 14 6 Noroeste 17 Noroeste 0 935.9 -0.2 38
2019-05-19 11:00:00 11.8 6 Noroeste 14 Este 0 935.8 -0.1 53
2019-05-19 10:00:00 9.6 6 Nordeste 12 Nordeste 0 936 0.5 63
2019-05-19 09:00:00 6.2 3 Sudeste 8 Sudeste 0 936.1 0.5 79
2019-05-19 08:00:00 2.4 6 Este 9 Este 0 935.9 0.4 87
2019-05-19 07:00:00 2.4 3 Sudoeste 8 Sudeste 0 935.5 -0.1 85
2019-05-19 06:00:00 3 4 Nordeste 12 Oeste 0 935.6 0 83
2019-05-19 05:00:00 4.8 4 Norte 11 Noroeste 0 935.5 -0.5 81
2019-05-19 04:00:00 5.5 5 Noroeste 10 Noroeste 0 935.6 -0.3 78
2019-05-19 03:00:00 6.3 5 Noroeste 10 Noroeste 0 935.6 -0.3 76
2019-05-19 02:00:00 7.3 5 Noroeste 24 Noroeste 0 936 0.3 72
2019-05-19 01:00:00 8.2 14 Noroeste 24 Noroeste 0 935.9 0.7 67
2019-05-19 00:00:00 8.9 11 Noroeste 23 Noroeste 0 935.9 1 63
2019-05-18 23:00:00 10 12 Noroeste 23 Oeste 0 935.7 1 56
2019-05-18 22:00:00 11.6 11 Oeste 19 Noroeste 0 935.2 0.6 44
2019-05-18 21:00:00 13.8 13 Noroeste 31 Noroeste 0 934.9 0.4 33
2019-05-18 20:00:00 15.2 19 Noroeste 41 Noroeste 0 934.7 0.2 30
2019-05-18 19:00:00 15 15 Noroeste 34 Noroeste 0 934.6 -0.1 31
2019-05-18 18:00:00 15 14 Noroeste 35 Noroeste 0 934.5 -0.3 30
2019-05-18 17:00:00 17 18 Noroeste 40 Noroeste 0 934.5 -0.6 27
2019-05-18 16:00:00 16.9 19 Oeste 37 Oeste 0 934.7 -0.7 26
2019-05-18 15:00:00 15.6 16 Noroeste 36 Noroeste 0 934.8 -0.5 29
2019-05-18 14:00:00 14.4 13 Noroeste 32 Oeste 0 935.1 -0.2 32
2019-05-18 13:00:00 14 14 Noroeste 33 Oeste 0 935.4 0.2 35
2019-05-18 12:00:00 12.8 11 Noroeste 31 Oeste 0 935.3 0.2 42
2019-05-18 11:00:00 11.4 13 Norte 36 Noroeste 0 935.3 0.4 46
2019-05-18 10:00:00 9.4 16 Noroeste 39 Norte 0 935.2 0.3 55
2019-05-18 09:00:00 7.1 10 Noroeste 23 Noroeste 0 935.1 0.3 72
2019-05-18 08:00:00 5.1 5 Norte 16 Noroeste 0 934.9 -0.1 80
2019-05-18 07:00:00 3.8 6 Noroeste 14 Oeste 0 934.9 -0.6 82
2019-05-18 06:00:00 4.7 8 Noroeste 13 Noroeste 0 934.8 -1.1 79
2019-05-18 05:00:00 5.8 7 Noroeste 14 Oeste 0 935 -0.9 75
2019-05-18 04:00:00 6.3 6 Noroeste 19 Noroeste 0 935.5 -0.3 72
2019-05-18 03:00:00 7 10 Noroeste 24 Noroeste 0 935.9 0.1 69
2019-05-18 02:00:00 7.3 15 Noroeste 27 Noroeste 0 935.9 0.2 67
2019-05-18 01:00:00 8.4 17 Noroeste 33 Noroeste 0 935.8 0.7 65
2019-05-18 00:00:00 9.3 12 Noroeste 27 Noroeste 0 935.8 1 60
2019-05-17 23:00:00 10.7 13 Noroeste 24 Noroeste 0 935.7 1.2 58
2019-05-17 22:00:00 10.3 13 Norte 45 Noroeste 0 935.1 0.7 66
2019-05-17 21:00:00 12.3 12 Noroeste 41 Noroeste 0 934.8 0.4 52
2019-05-17 20:00:00 13.6 20 Noroeste 44 Norte 0 934.5 0 47
2019-05-17 19:00:00 14.7 19 Noroeste 41 Noroeste 0 934.4 -0.5 38
2019-05-17 18:00:00 16.4 19 Noroeste 46 Noroeste 0 934.4 -1.1 36
2019-05-17 17:00:00 16.3 24 Noroeste 47 Noroeste 0 934.5 -1.4 35
2019-05-17 16:00:00 17.2 19 Noroeste 46 Oeste 0 934.9 -1.8 28
2019-05-17 15:00:00 16.2 22 Oeste 48 Oeste 0 935.5 -1 31
2019-05-17 14:00:00 14.1 19 Noroeste 45 Norte 0 935.9 -0.4 40
2019-05-17 13:00:00 12.1 18 Noroeste 37 Noroeste 0 936.7 0.7 49
2019-05-17 12:00:00 11.2 19 Noroeste 41 Noroeste 0 936.5 1.2 52
2019-05-17 11:00:00 10 20 Noroeste 37 Noroeste 0 936.3 1.3 57
2019-05-17 10:00:00 9.1 15 Oeste 38 Oeste 0 936 1.6 62
2019-05-17 09:00:00 8.9 17 Noroeste 30 Noroeste 0 935.3 1.3 63
2019-05-17 08:00:00 7.7 12 Oeste 25 Oeste 0 935 1.2 67
2019-05-17 07:00:00 7.3 11 Noroeste 31 Noroeste 0 934.4 0.5 69
2019-05-17 06:00:00 6.9 15 Noroeste 27 Oeste 0 934 0 72
2019-05-17 05:00:00 6.3 9 Noroeste 20 Noroeste 0 933.8 -0.5 74
2019-05-17 04:00:00 7.1 7 Noroeste 20 Noroeste 0 933.9 -0.1 72
2019-05-17 03:00:00 7.9 13 Noroeste 27 Noroeste 0 934 0 69
2019-05-17 02:00:00 8.4 14 Noroeste 41 Noroeste 0 934.3 0.8 67
2019-05-17 01:00:00 8.8 22 Noroeste 49 Noroeste 0 934 1 66
2019-05-17 00:00:00 10 25 Noroeste 49 Noroeste 0 934 1.8 64